sensor_id;sensor_type;location;lat;lon;timestamp;P1;durP1;ratioP1;P2;durP2;ratioP2
60641;SDS011;46837;52.446;-1.930;2023-06-10T00:01:07;21.78;;;7.52;;
60641;SDS011;46837;52.446;-1.930;2023-06-10T00:02:07;17.76;;;6.58;;
60641;SDS011;46837;52.446;-1.930;2023-06-10T00:03:07;15.28;;;6.54;;
60641;SDS011;46837;52.446;-1.930;2023-06-10T00:04:07;15.12;;;5.90;;
60641;SDS011;46837;52.446;-1.930;2023-06-10T00:05:07;25.06;;;7.26;;
60641;SDS011;46837;52.446;-1.930;2023-06-10T00:06:07;21.46;;;8.50;;
60641;SDS011;46837;52.446;-1.930;2023-06-10T00:07:09;18.70;;;7.64;;
60641;SDS011;46837;52.446;-1.930;2023-06-10T00:08:08;16.92;;;7.54;;
60641;SDS011;46837;52.446;-1.930;2023-06-10T00:09:07;17.64;;;6.84;;
60641;SDS011;46837;52.446;-1.930;2023-06-10T00:10:07;19.40;;;6.90;;
60641;SDS011;46837;52.446;-1.930;2023-06-10T00:11:07;19.94;;;8.32;;
60641;SDS011;46837;52.446;-1.930;2023-06-10T00:12:07;16.18;;;7.38;;
60641;SDS011;46837;52.446;-1.930;2023-06-10T00:13:07;24.72;;;8.14;;
60641;SDS011;46837;52.446;-1.930;2023-06-10T00:14:07;17.20;;;7.26;;
60641;SDS011;46837;52.446;-1.930;2023-06-10T00:15:07;20.94;;;9.10;;
60641;SDS011;46837;52.446;-1.930;2023-06-10T00:16:07;14.30;;;6.64;;
60641;SDS011;46837;52.446;-1.930;2023-06-10T00:17:07;21.80;;;8.60;;
60641;SDS011;46837;52.446;-1.930;2023-06-10T00:18:07;26.36;;;9.62;;
60641;SDS011;46837;52.446;-1.930;2023-06-10T00:19:07;26.78;;;11.50;;
60641;SDS011;46837;52.446;-1.930;2023-06-10T00:20:10;28.84;;;8.96;;
60641;SDS011;46837;52.446;-1.930;2023-06-10T00:21:07;24.92;;;9.46;;
60641;SDS011;46837;52.446;-1.930;2023-06-10T00:22:07;23.34;;;11.84;;
60641;SDS011;46837;52.446;-1.930;2023-06-10T00:23:09;29.46;;;10.68;;
60641;SDS011;46837;52.446;-1.930;2023-06-10T00:24:07;19.04;;;9.72;;
60641;SDS011;46837;52.446;-1.930;2023-06-10T00:25:07;21.14;;;10.12;;
60641;SDS011;46837;52.446;-1.930;2023-06-10T00:26:07;20.76;;;10.60;;
60641;SDS011;46837;52.446;-1.930;2023-06-10T00:27:07;24.56;;;10.08;;
60641;SDS011;46837;52.446;-1.930;2023-06-10T00:28:07;27.68;;;10.44;;
60641;SDS011;46837;52.446;-1.930;2023-06-10T00:29:07;21.74;;;10.44;;
60641;SDS011;46837;52.446;-1.930;2023-06-10T00:30:07;21.00;;;10.14;;
60641;SDS011;46837;52.446;-1.930;2023-06-10T00:31:07;27.42;;;11.86;;
60641;SDS011;46837;52.446;-1.930;2023-06-10T00:32:07;24.76;;;11.56;;
60641;SDS011;46837;52.446;-1.930;2023-06-10T00:33:07;20.20;;;10.70;;
60641;SDS011;46837;52.446;-1.930;2023-06-10T00:34:07;21.50;;;11.40;;
60641;SDS011;46837;52.446;-1.930;2023-06-10T00:35:07;22.88;;;11.42;;
60641;SDS011;46837;52.446;-1.930;2023-06-10T00:36:07;23.02;;;11.18;;
60641;SDS011;46837;52.446;-1.930;2023-06-10T00:37:07;24.14;;;11.88;;
60641;SDS011;46837;52.446;-1.930;2023-06-10T00:38:07;31.76;;;12.78;;
60641;SDS011;46837;52.446;-1.930;2023-06-10T00:39:07;26.62;;;12.52;;
60641;SDS011;46837;52.446;-1.930;2023-06-10T00:40:07;29.68;;;14.10;;
60641;SDS011;46837;52.446;-1.930;2023-06-10T00:41:07;24.58;;;12.58;;
60641;SDS011;46837;52.446;-1.930;2023-06-10T00:42:07;23.30;;;11.46;;
60641;SDS011;46837;52.446;-1.930;2023-06-10T00:43:07;18.60;;;10.72;;
60641;SDS011;46837;52.446;-1.930;2023-06-10T00:44:07;28.30;;;12.74;;
60641;SDS011;46837;52.446;-1.930;2023-06-10T00:45:07;27.50;;;12.14;;
60641;SDS011;46837;52.446;-1.930;2023-06-10T00:46:07;26.94;;;12.40;;
60641;SDS011;46837;52.446;-1.930;2023-06-10T00:47:07;35.14;;;13.02;;
60641;SDS011;46837;52.446;-1.930;2023-06-10T00:48:07;27.80;;;11.76;;
60641;SDS011;46837;52.446;-1.930;2023-06-10T00:49:07;23.58;;;12.60;;
60641;SDS011;46837;52.446;-1.930;2023-06-10T00:50:07;20.44;;;13.22;;
60641;SDS011;46837;52.446;-1.930;2023-06-10T00:51:07;34.06;;;14.68;;
60641;SDS011;46837;52.446;-1.930;2023-06-10T00:52:07;18.98;;;12.00;;
60641;SDS011;46837;52.446;-1.930;2023-06-10T00:53:07;22.10;;;13.30;;
60641;SDS011;46837;52.446;-1.930;2023-06-10T00:54:07;20.84;;;12.42;;
60641;SDS011;46837;52.446;-1.930;2023-06-10T00:55:07;19.66;;;12.66;;
60641;SDS011;46837;52.446;-1.930;2023-06-10T00:56:07;27.76;;;14.22;;
60641;SDS011;46837;52.446;-1.930;2023-06-10T00:57:07;26.62;;;13.78;;
60641;SDS011;46837;52.446;-1.930;2023-06-10T00:58:07;18.04;;;11.92;;
60641;SDS011;46837;52.446;-1.930;2023-06-10T00:59:07;26.40;;;14.64;;
60641;SDS011;46837;52.446;-1.930;2023-06-10T01:00:08;22.58;;;11.80;;
60641;SDS011;46837;52.446;-1.930;2023-06-10T01:01:07;24.00;;;13.48;;
60641;SDS011;46837;52.446;-1.930;2023-06-10T01:02:07;18.98;;;13.16;;
60641;SDS011;46837;52.446;-1.930;2023-06-10T01:03:09;20.54;;;13.88;;
60641;SDS011;46837;52.446;-1.930;2023-06-10T01:04:07;21.72;;;12.98;;
60641;SDS011;46837;52.446;-1.930;2023-06-10T01:05:07;30.04;;;14.20;;
60641;SDS011;46837;52.446;-1.930;2023-06-10T01:06:54;26.54;;;13.00;;
60641;SDS011;46837;52.446;-1.930;2023-06-10T01:07:14;31.62;;;14.06;;
60641;SDS011;46837;52.446;-1.930;2023-06-10T01:08:09;23.18;;;13.10;;
60641;SDS011;46837;52.446;-1.930;2023-06-10T01:11:07;30.60;;;14.32;;
60641;SDS011;46837;52.446;-1.930;2023-06-10T01:12:16;23.26;;;14.00;;
60641;SDS011;46837;52.446;-1.930;2023-06-10T01:13:12;24.78;;;13.14;;
60641;SDS011;46837;52.446;-1.930;2023-06-10T01:14:07;27.74;;;14.44;;
60641;SDS011;46837;52.446;-1.930;2023-06-10T01:15:07;26.46;;;13.66;;
60641;SDS011;46837;52.446;-1.930;2023-06-10T01:16:07;24.08;;;14.06;;
60641;SDS011;46837;52.446;-1.930;2023-06-10T01:17:07;25.20;;;15.64;;
60641;SDS011;46837;52.446;-1.930;2023-06-10T01:18:09;35.06;;;15.70;;
60641;SDS011;46837;52.446;-1.930;2023-06-10T01:19:07;30.80;;;15.38;;
60641;SDS011;46837;52.446;-1.930;2023-06-10T01:20:07;31.24;;;14.70;;
60641;SDS011;46837;52.446;-1.930;2023-06-10T01:21:08;24.28;;;13.44;;
60641;SDS011;46837;52.446;-1.930;2023-06-10T01:22:07;30.20;;;14.16;;
60641;SDS011;46837;52.446;-1.930;2023-06-10T01:23:07;32.94;;;14.92;;
60641;SDS011;46837;52.446;-1.930;2023-06-10T01:24:09;28.42;;;14.46;;
60641;SDS011;46837;52.446;-1.930;2023-06-10T01:25:08;26.86;;;14.22;;
60641;SDS011;46837;52.446;-1.930;2023-06-10T01:26:08;30.30;;;15.12;;
60641;SDS011;46837;52.446;-1.930;2023-06-10T01:27:08;30.50;;;15.28;;
60641;SDS011;46837;52.446;-1.930;2023-06-10T01:28:12;36.56;;;16.02;;
60641;SDS011;46837;52.446;-1.930;2023-06-10T01:33:07;24.42;;;13.70;;
60641;SDS011;46837;52.446;-1.930;2023-06-10T01:34:07;26.50;;;14.34;;
60641;SDS011;46837;52.446;-1.930;2023-06-10T01:35:07;22.90;;;14.46;;
60641;SDS011;46837;52.446;-1.930;2023-06-10T01:36:07;27.80;;;16.16;;
60641;SDS011;46837;52.446;-1.930;2023-06-10T01:37:07;26.74;;;14.96;;
60641;SDS011;46837;52.446;-1.930;2023-06-10T01:38:07;30.06;;;14.96;;
60641;SDS011;46837;52.446;-1.930;2023-06-10T01:39:08;31.02;;;16.94;;
60641;SDS011;46837;52.446;-1.930;2023-06-10T01:40:07;31.24;;;15.62;;
60641;SDS011;46837;52.446;-1.930;2023-06-10T01:41:07;34.28;;;16.38;;
60641;SDS011;46837;52.446;-1.930;2023-06-10T01:42:07;28.62;;;16.46;;
60641;SDS011;46837;52.446;-1.930;2023-06-10T01:43:07;27.38;;;16.16;;
60641;SDS011;46837;52.446;-1.930;2023-06-10T01:44:07;32.70;;;14.86;;
60641;SDS011;46837;52.446;-1.930;2023-06-10T01:45:07;26.20;;;15.50;;
60641;SDS011;46837;52.446;-1.930;2023-06-10T01:46:07;25.98;;;15.94;;
60641;SDS011;46837;52.446;-1.930;2023-06-10T01:47:07;28.18;;;15.22;;
60641;SDS011;46837;52.446;-1.930;2023-06-10T01:48:07;34.90;;;16.60;;
60641;SDS011;46837;52.446;-1.930;2023-06-10T01:49:07;36.58;;;17.48;;
60641;SDS011;46837;52.446;-1.930;2023-06-10T01:50:07;30.76;;;15.12;;
60641;SDS011;46837;52.446;-1.930;2023-06-10T01:51:07;26.82;;;15.26;;
60641;SDS011;46837;52.446;-1.930;2023-06-10T01:52:07;32.18;;;16.70;;
60641;SDS011;46837;52.446;-1.930;2023-06-10T01:53:09;26.30;;;14.56;;
60641;SDS011;46837;52.446;-1.930;2023-06-10T01:54:07;32.56;;;16.76;;
60641;SDS011;46837;52.446;-1.930;2023-06-10T01:55:07;26.50;;;15.48;;
60641;SDS011;46837;52.446;-1.930;2023-06-10T01:56:07;25.40;;;15.34;;
60641;SDS011;46837;52.446;-1.930;2023-06-10T01:57:07;27.18;;;14.94;;
60641;SDS011;46837;52.446;-1.930;2023-06-10T01:58:07;32.56;;;15.98;;
60641;SDS011;46837;52.446;-1.930;2023-06-10T01:59:07;35.92;;;15.72;;
60641;SDS011;46837;52.446;-1.930;2023-06-10T02:00:07;24.88;;;14.84;;
60641;SDS011;46837;52.446;-1.930;2023-06-10T02:01:07;30.46;;;15.02;;
60641;SDS011;46837;52.446;-1.930;2023-06-10T02:02:07;30.82;;;15.64;;
60641;SDS011;46837;52.446;-1.930;2023-06-10T02:03:07;30.14;;;14.78;;
60641;SDS011;46837;52.446;-1.930;2023-06-10T02:04:07;36.88;;;16.40;;
60641;SDS011;46837;52.446;-1.930;2023-06-10T02:05:07;26.20;;;15.46;;
60641;SDS011;46837;52.446;-1.930;2023-06-10T02:06:07;28.10;;;15.36;;
60641;SDS011;46837;52.446;-1.930;2023-06-10T02:07:07;29.04;;;14.18;;
60641;SDS011;46837;52.446;-1.930;2023-06-10T02:08:07;26.40;;;14.36;;
60641;SDS011;46837;52.446;-1.930;2023-06-10T02:09:07;30.52;;;15.60;;
60641;SDS011;46837;52.446;-1.930;2023-06-10T02:10:07;23.24;;;15.90;;
60641;SDS011;46837;52.446;-1.930;2023-06-10T02:11:07;33.72;;;15.32;;
60641;SDS011;46837;52.446;-1.930;2023-06-10T02:12:07;24.28;;;13.84;;
60641;SDS011;46837;52.446;-1.930;2023-06-10T02:13:07;27.42;;;14.92;;
60641;SDS011;46837;52.446;-1.930;2023-06-10T02:14:07;22.32;;;14.78;;
60641;SDS011;46837;52.446;-1.930;2023-06-10T02:15:07;29.36;;;16.58;;
60641;SDS011;46837;52.446;-1.930;2023-06-10T02:16:07;26.56;;;15.30;;
60641;SDS011;46837;52.446;-1.930;2023-06-10T02:17:07;25.52;;;16.04;;
60641;SDS011;46837;52.446;-1.930;2023-06-10T02:18:07;24.40;;;15.68;;
60641;SDS011;46837;52.446;-1.930;2023-06-10T02:19:07;35.10;;;16.82;;
60641;SDS011;46837;52.446;-1.930;2023-06-10T02:20:07;22.52;;;14.30;;
60641;SDS011;46837;52.446;-1.930;2023-06-10T02:21:07;30.00;;;14.80;;
60641;SDS011;46837;52.446;-1.930;2023-06-10T02:22:07;31.00;;;14.44;;
60641;SDS011;46837;52.446;-1.930;2023-06-10T02:23:07;21.32;;;14.56;;
60641;SDS011;46837;52.446;-1.930;2023-06-10T02:24:07;25.56;;;15.12;;
60641;SDS011;46837;52.446;-1.930;2023-06-10T02:25:07;29.54;;;15.66;;
60641;SDS011;46837;52.446;-1.930;2023-06-10T02:26:07;26.86;;;16.10;;
60641;SDS011;46837;52.446;-1.930;2023-06-10T02:27:07;32.12;;;16.50;;
60641;SDS011;46837;52.446;-1.930;2023-06-10T02:28:07;32.46;;;16.02;;
60641;SDS011;46837;52.446;-1.930;2023-06-10T02:29:07;30.94;;;15.90;;
60641;SDS011;46837;52.446;-1.930;2023-06-10T02:30:07;31.32;;;14.68;;
60641;SDS011;46837;52.446;-1.930;2023-06-10T02:31:07;25.78;;;15.10;;
60641;SDS011;46837;52.446;-1.930;2023-06-10T02:32:07;27.04;;;15.98;;
60641;SDS011;46837;52.446;-1.930;2023-06-10T02:33:07;38.40;;;16.08;;
60641;SDS011;46837;52.446;-1.930;2023-06-10T02:34:07;33.46;;;17.12;;
60641;SDS011;46837;52.446;-1.930;2023-06-10T02:35:07;31.60;;;16.80;;
60641;SDS011;46837;52.446;-1.930;2023-06-10T02:36:07;28.82;;;16.30;;
60641;SDS011;46837;52.446;-1.930;2023-06-10T02:37:07;36.16;;;16.46;;
60641;SDS011;46837;52.446;-1.930;2023-06-10T02:38:07;26.42;;;16.64;;
60641;SDS011;46837;52.446;-1.930;2023-06-10T02:39:07;26.36;;;14.98;;
60641;SDS011;46837;52.446;-1.930;2023-06-10T02:40:07;33.56;;;15.86;;
60641;SDS011;46837;52.446;-1.930;2023-06-10T02:41:07;24.82;;;16.38;;
60641;SDS011;46837;52.446;-1.930;2023-06-10T02:42:07;32.40;;;16.72;;
60641;SDS011;46837;52.446;-1.930;2023-06-10T02:43:07;27.24;;;17.76;;
60641;SDS011;46837;52.446;-1.930;2023-06-10T02:44:07;28.12;;;15.98;;
60641;SDS011;46837;52.446;-1.930;2023-06-10T02:45:07;32.16;;;16.64;;
60641;SDS011;46837;52.446;-1.930;2023-06-10T02:46:07;29.58;;;15.76;;
60641;SDS011;46837;52.446;-1.930;2023-06-10T02:47:07;33.64;;;19.56;;
60641;SDS011;46837;52.446;-1.930;2023-06-10T02:48:07;32.54;;;18.42;;
60641;SDS011;46837;52.446;-1.930;2023-06-10T02:49:07;39.56;;;17.86;;
60641;SDS011;46837;52.446;-1.930;2023-06-10T02:50:07;30.30;;;17.36;;
60641;SDS011;46837;52.446;-1.930;2023-06-10T02:51:07;35.60;;;18.26;;
60641;SDS011;46837;52.446;-1.930;2023-06-10T02:52:07;39.46;;;18.22;;
60641;SDS011;46837;52.446;-1.930;2023-06-10T02:53:07;37.36;;;19.90;;
60641;SDS011;46837;52.446;-1.930;2023-06-10T02:54:07;38.52;;;21.44;;
60641;SDS011;46837;52.446;-1.930;2023-06-10T02:55:07;33.38;;;20.94;;
60641;SDS011;46837;52.446;-1.930;2023-06-10T02:56:07;30.54;;;18.54;;
60641;SDS011;46837;52.446;-1.930;2023-06-10T02:57:07;36.70;;;19.02;;
60641;SDS011;46837;52.446;-1.930;2023-06-10T02:58:07;33.34;;;19.66;;
60641;SDS011;46837;52.446;-1.930;2023-06-10T02:59:08;36.74;;;19.48;;
60641;SDS011;46837;52.446;-1.930;2023-06-10T03:00:10;27.50;;;19.68;;
60641;SDS011;46837;52.446;-1.930;2023-06-10T03:01:07;41.28;;;20.52;;
60641;SDS011;46837;52.446;-1.930;2023-06-10T03:02:07;36.14;;;22.18;;
60641;SDS011;46837;52.446;-1.930;2023-06-10T03:03:07;31.30;;;18.88;;
60641;SDS011;46837;52.446;-1.930;2023-06-10T03:04:07;35.24;;;20.38;;
60641;SDS011;46837;52.446;-1.930;2023-06-10T03:05:07;29.24;;;19.76;;
60641;SDS011;46837;52.446;-1.930;2023-06-10T03:06:07;40.56;;;22.12;;
60641;SDS011;46837;52.446;-1.930;2023-06-10T03:07:08;31.24;;;20.48;;
60641;SDS011;46837;52.446;-1.930;2023-06-10T03:08:07;31.64;;;19.58;;
60641;SDS011;46837;52.446;-1.930;2023-06-10T03:09:07;34.32;;;19.50;;
60641;SDS011;46837;52.446;-1.930;2023-06-10T03:10:07;36.26;;;21.20;;
60641;SDS011;46837;52.446;-1.930;2023-06-10T03:11:07;35.04;;;20.48;;
60641;SDS011;46837;52.446;-1.930;2023-06-10T03:12:07;29.34;;;20.12;;
60641;SDS011;46837;52.446;-1.930;2023-06-10T03:13:07;32.80;;;21.02;;
60641;SDS011;46837;52.446;-1.930;2023-06-10T03:14:07;40.92;;;22.32;;
60641;SDS011;46837;52.446;-1.930;2023-06-10T03:15:07;41.42;;;21.86;;
60641;SDS011;46837;52.446;-1.930;2023-06-10T03:16:07;36.76;;;21.56;;
60641;SDS011;46837;52.446;-1.930;2023-06-10T03:17:07;38.26;;;23.04;;
60641;SDS011;46837;52.446;-1.930;2023-06-10T03:18:07;43.06;;;22.14;;
60641;SDS011;46837;52.446;-1.930;2023-06-10T03:19:07;31.20;;;21.90;;
60641;SDS011;46837;52.446;-1.930;2023-06-10T03:20:11;41.26;;;23.54;;
60641;SDS011;46837;52.446;-1.930;2023-06-10T03:21:07;36.56;;;22.34;;
60641;SDS011;46837;52.446;-1.930;2023-06-10T03:22:08;37.14;;;23.76;;
60641;SDS011;46837;52.446;-1.930;2023-06-10T03:23:07;32.98;;;22.40;;
60641;SDS011;46837;52.446;-1.930;2023-06-10T03:24:07;42.82;;;24.52;;
60641;SDS011;46837;52.446;-1.930;2023-06-10T03:25:07;45.96;;;23.76;;
60641;SDS011;46837;52.446;-1.930;2023-06-10T03:26:07;45.54;;;25.26;;
60641;SDS011;46837;52.446;-1.930;2023-06-10T03:27:07;39.50;;;24.24;;
60641;SDS011;46837;52.446;-1.930;2023-06-10T03:28:07;33.30;;;22.30;;
60641;SDS011;46837;52.446;-1.930;2023-06-10T03:29:07;44.98;;;25.52;;
60641;SDS011;46837;52.446;-1.930;2023-06-10T03:30:07;44.02;;;24.98;;
60641;SDS011;46837;52.446;-1.930;2023-06-10T03:31:07;39.88;;;23.04;;
60641;SDS011;46837;52.446;-1.930;2023-06-10T03:32:07;41.22;;;25.02;;
60641;SDS011;46837;52.446;-1.930;2023-06-10T03:33:07;43.68;;;24.16;;
60641;SDS011;46837;52.446;-1.930;2023-06-10T03:34:07;43.62;;;23.92;;
60641;SDS011;46837;52.446;-1.930;2023-06-10T03:35:07;38.26;;;22.88;;
60641;SDS011;46837;52.446;-1.930;2023-06-10T03:36:07;43.52;;;25.98;;
60641;SDS011;46837;52.446;-1.930;2023-06-10T03:37:07;35.88;;;22.10;;
60641;SDS011;46837;52.446;-1.930;2023-06-10T03:38:07;36.84;;;24.86;;
60641;SDS011;46837;52.446;-1.930;2023-06-10T03:39:07;35.84;;;22.82;;
60641;SDS011;46837;52.446;-1.930;2023-06-10T03:40:07;38.44;;;24.44;;
60641;SDS011;46837;52.446;-1.930;2023-06-10T03:41:07;31.52;;;22.54;;
60641;SDS011;46837;52.446;-1.930;2023-06-10T03:42:07;40.04;;;24.64;;
60641;SDS011;46837;52.446;-1.930;2023-06-10T03:43:07;40.18;;;24.44;;
60641;SDS011;46837;52.446;-1.930;2023-06-10T03:44:07;38.48;;;22.92;;
60641;SDS011;46837;52.446;-1.930;2023-06-10T03:45:07;36.78;;;23.56;;
60641;SDS011;46837;52.446;-1.930;2023-06-10T03:46:07;46.20;;;23.72;;
60641;SDS011;46837;52.446;-1.930;2023-06-10T03:47:07;33.64;;;21.82;;
60641;SDS011;46837;52.446;-1.930;2023-06-10T03:48:07;38.62;;;23.48;;
60641;SDS011;46837;52.446;-1.930;2023-06-10T03:49:07;35.62;;;24.88;;
60641;SDS011;46837;52.446;-1.930;2023-06-10T03:50:07;35.98;;;22.08;;
60641;SDS011;46837;52.446;-1.930;2023-06-10T03:51:07;34.88;;;21.94;;
60641;SDS011;46837;52.446;-1.930;2023-06-10T03:52:07;33.98;;;21.88;;
60641;SDS011;46837;52.446;-1.930;2023-06-10T03:53:07;35.30;;;21.20;;
60641;SDS011;46837;52.446;-1.930;2023-06-10T03:54:07;43.74;;;23.38;;
60641;SDS011;46837;52.446;-1.930;2023-06-10T03:55:07;40.36;;;21.16;;
60641;SDS011;46837;52.446;-1.930;2023-06-10T03:56:07;38.54;;;22.46;;
60641;SDS011;46837;52.446;-1.930;2023-06-10T03:57:07;38.90;;;22.24;;
60641;SDS011;46837;52.446;-1.930;2023-06-10T03:58:07;40.42;;;21.50;;
60641;SDS011;46837;52.446;-1.930;2023-06-10T03:59:07;39.52;;;21.06;;
60641;SDS011;46837;52.446;-1.930;2023-06-10T04:00:12;39.32;;;22.08;;
60641;SDS011;46837;52.446;-1.930;2023-06-10T04:01:07;33.34;;;20.00;;
60641;SDS011;46837;52.446;-1.930;2023-06-10T04:02:07;39.10;;;20.78;;
60641;SDS011;46837;52.446;-1.930;2023-06-10T04:03:09;27.92;;;18.68;;
60641;SDS011;46837;52.446;-1.930;2023-06-10T04:04:07;36.36;;;21.06;;
60641;SDS011;46837;52.446;-1.930;2023-06-10T04:05:07;33.40;;;20.64;;
60641;SDS011;46837;52.446;-1.930;2023-06-10T04:06:07;30.64;;;21.46;;
60641;SDS011;46837;52.446;-1.930;2023-06-10T04:07:07;37.90;;;20.44;;
60641;SDS011;46837;52.446;-1.930;2023-06-10T04:08:07;36.70;;;20.46;;
60641;SDS011;46837;52.446;-1.930;2023-06-10T04:09:07;41.80;;;20.46;;
60641;SDS011;46837;52.446;-1.930;2023-06-10T04:10:07;37.04;;;19.76;;
60641;SDS011;46837;52.446;-1.930;2023-06-10T04:11:07;33.70;;;20.78;;
60641;SDS011;46837;52.446;-1.930;2023-06-10T04:12:09;35.94;;;20.24;;
60641;SDS011;46837;52.446;-1.930;2023-06-10T04:13:07;38.30;;;22.40;;
60641;SDS011;46837;52.446;-1.930;2023-06-10T04:14:07;36.58;;;22.30;;
60641;SDS011;46837;52.446;-1.930;2023-06-10T04:15:07;44.60;;;22.00;;
60641;SDS011;46837;52.446;-1.930;2023-06-10T04:16:07;37.20;;;21.12;;
60641;SDS011;46837;52.446;-1.930;2023-06-10T04:17:07;44.26;;;22.98;;
60641;SDS011;46837;52.446;-1.930;2023-06-10T04:18:07;32.34;;;22.22;;
60641;SDS011;46837;52.446;-1.930;2023-06-10T04:19:07;38.10;;;23.54;;
60641;SDS011;46837;52.446;-1.930;2023-06-10T04:20:08;41.78;;;23.70;;
60641;SDS011;46837;52.446;-1.930;2023-06-10T04:21:07;42.74;;;23.98;;
60641;SDS011;46837;52.446;-1.930;2023-06-10T04:22:07;45.74;;;23.22;;
60641;SDS011;46837;52.446;-1.930;2023-06-10T04:23:07;40.78;;;23.94;;
60641;SDS011;46837;52.446;-1.930;2023-06-10T04:24:07;34.88;;;23.86;;
60641;SDS011;46837;52.446;-1.930;2023-06-10T04:25:08;38.78;;;23.92;;
60641;SDS011;46837;52.446;-1.930;2023-06-10T04:26:07;38.12;;;21.52;;
60641;SDS011;46837;52.446;-1.930;2023-06-10T04:27:07;36.20;;;23.78;;
60641;SDS011;46837;52.446;-1.930;2023-06-10T04:28:07;37.80;;;24.18;;
60641;SDS011;46837;52.446;-1.930;2023-06-10T04:29:07;46.82;;;24.32;;
60641;SDS011;46837;52.446;-1.930;2023-06-10T04:30:07;47.24;;;24.18;;
60641;SDS011;46837;52.446;-1.930;2023-06-10T04:31:07;30.52;;;21.70;;
60641;SDS011;46837;52.446;-1.930;2023-06-10T04:32:07;35.34;;;21.68;;
60641;SDS011;46837;52.446;-1.930;2023-06-10T04:33:07;39.92;;;22.40;;
60641;SDS011;46837;52.446;-1.930;2023-06-10T04:34:07;40.26;;;23.40;;
60641;SDS011;46837;52.446;-1.930;2023-06-10T04:35:07;42.82;;;23.82;;
60641;SDS011;46837;52.446;-1.930;2023-06-10T04:36:07;40.80;;;24.12;;
60641;SDS011;46837;52.446;-1.930;2023-06-10T04:37:07;39.72;;;25.04;;
60641;SDS011;46837;52.446;-1.930;2023-06-10T04:38:07;34.42;;;23.08;;
60641;SDS011;46837;52.446;-1.930;2023-06-10T04:39:08;39.30;;;25.16;;
60641;SDS011;46837;52.446;-1.930;2023-06-10T04:40:07;39.82;;;22.72;;
60641;SDS011;46837;52.446;-1.930;2023-06-10T04:41:07;36.10;;;22.62;;
60641;SDS011;46837;52.446;-1.930;2023-06-10T04:42:07;36.06;;;22.02;;
60641;SDS011;46837;52.446;-1.930;2023-06-10T04:43:07;35.28;;;23.14;;
60641;SDS011;46837;52.446;-1.930;2023-06-10T04:44:07;41.74;;;22.28;;
60641;SDS011;46837;52.446;-1.930;2023-06-10T04:45:07;39.30;;;23.82;;
60641;SDS011;46837;52.446;-1.930;2023-06-10T04:46:07;37.68;;;22.62;;
60641;SDS011;46837;52.446;-1.930;2023-06-10T04:47:07;38.32;;;25.20;;
60641;SDS011;46837;52.446;-1.930;2023-06-10T04:48:07;41.24;;;24.48;;
60641;SDS011;46837;52.446;-1.930;2023-06-10T04:49:07;35.46;;;22.68;;
60641;SDS011;46837;52.446;-1.930;2023-06-10T04:50:07;35.58;;;23.64;;
60641;SDS011;46837;52.446;-1.930;2023-06-10T04:51:07;46.34;;;27.08;;
60641;SDS011;46837;52.446;-1.930;2023-06-10T04:52:07;42.04;;;24.18;;
60641;SDS011;46837;52.446;-1.930;2023-06-10T04:53:07;38.40;;;22.54;;
60641;SDS011;46837;52.446;-1.930;2023-06-10T04:54:07;43.42;;;26.78;;
60641;SDS011;46837;52.446;-1.930;2023-06-10T04:55:07;40.62;;;22.32;;
60641;SDS011;46837;52.446;-1.930;2023-06-10T04:56:07;35.42;;;22.92;;
60641;SDS011;46837;52.446;-1.930;2023-06-10T04:57:07;39.50;;;23.56;;
60641;SDS011;46837;52.446;-1.930;2023-06-10T04:58:07;40.46;;;23.10;;
60641;SDS011;46837;52.446;-1.930;2023-06-10T04:59:07;45.96;;;22.62;;
60641;SDS011;46837;52.446;-1.930;2023-06-10T05:00:07;39.24;;;24.18;;
60641;SDS011;46837;52.446;-1.930;2023-06-10T05:01:07;32.30;;;22.40;;
60641;SDS011;46837;52.446;-1.930;2023-06-10T05:02:07;39.52;;;23.44;;
60641;SDS011;46837;52.446;-1.930;2023-06-10T05:03:07;36.98;;;24.50;;
60641;SDS011;46837;52.446;-1.930;2023-06-10T05:04:07;40.38;;;24.24;;
60641;SDS011;46837;52.446;-1.930;2023-06-10T05:05:07;41.54;;;23.82;;
60641;SDS011;46837;52.446;-1.930;2023-06-10T05:06:07;35.86;;;24.16;;
60641;SDS011;46837;52.446;-1.930;2023-06-10T05:07:07;40.16;;;24.00;;
60641;SDS011;46837;52.446;-1.930;2023-06-10T05:08:07;37.76;;;23.38;;
60641;SDS011;46837;52.446;-1.930;2023-06-10T05:09:07;38.90;;;24.74;;
60641;SDS011;46837;52.446;-1.930;2023-06-10T05:10:07;39.78;;;22.58;;
60641;SDS011;46837;52.446;-1.930;2023-06-10T05:11:07;36.02;;;23.38;;
60641;SDS011;46837;52.446;-1.930;2023-06-10T05:12:07;38.74;;;22.52;;
60641;SDS011;46837;52.446;-1.930;2023-06-10T05:13:07;44.66;;;25.02;;
60641;SDS011;46837;52.446;-1.930;2023-06-10T05:14:07;37.70;;;23.90;;
60641;SDS011;46837;52.446;-1.930;2023-06-10T05:15:07;41.02;;;24.84;;
60641;SDS011;46837;52.446;-1.930;2023-06-10T05:16:07;44.82;;;24.36;;
60641;SDS011;46837;52.446;-1.930;2023-06-10T05:17:07;37.44;;;24.28;;
60641;SDS011;46837;52.446;-1.930;2023-06-10T05:18:07;38.58;;;25.90;;
60641;SDS011;46837;52.446;-1.930;2023-06-10T05:19:07;48.52;;;25.06;;
60641;SDS011;46837;52.446;-1.930;2023-06-10T05:20:07;40.88;;;23.82;;
60641;SDS011;46837;52.446;-1.930;2023-06-10T05:21:07;38.16;;;24.20;;
60641;SDS011;46837;52.446;-1.930;2023-06-10T05:22:07;41.76;;;24.58;;
60641;SDS011;46837;52.446;-1.930;2023-06-10T05:23:07;41.96;;;23.34;;
60641;SDS011;46837;52.446;-1.930;2023-06-10T05:24:07;42.28;;;23.78;;
60641;SDS011;46837;52.446;-1.930;2023-06-10T05:25:07;46.50;;;24.00;;
60641;SDS011;46837;52.446;-1.930;2023-06-10T05:26:07;41.04;;;23.10;;
60641;SDS011;46837;52.446;-1.930;2023-06-10T05:27:07;34.02;;;22.40;;
60641;SDS011;46837;52.446;-1.930;2023-06-10T05:28:07;39.00;;;23.90;;
60641;SDS011;46837;52.446;-1.930;2023-06-10T05:29:07;40.16;;;24.88;;
60641;SDS011;46837;52.446;-1.930;2023-06-10T05:30:08;35.30;;;22.60;;
60641;SDS011;46837;52.446;-1.930;2023-06-10T05:31:07;48.46;;;24.68;;
60641;SDS011;46837;52.446;-1.930;2023-06-10T05:32:07;47.58;;;28.08;;
60641;SDS011;46837;52.446;-1.930;2023-06-10T05:33:07;47.90;;;23.60;;
60641;SDS011;46837;52.446;-1.930;2023-06-10T05:34:07;44.96;;;25.24;;
60641;SDS011;46837;52.446;-1.930;2023-06-10T05:35:07;43.66;;;25.80;;
60641;SDS011;46837;52.446;-1.930;2023-06-10T05:36:07;39.12;;;25.96;;
60641;SDS011;46837;52.446;-1.930;2023-06-10T05:37:07;48.04;;;27.66;;
60641;SDS011;46837;52.446;-1.930;2023-06-10T05:38:07;43.76;;;26.28;;
60641;SDS011;46837;52.446;-1.930;2023-06-10T05:39:09;39.50;;;25.60;;
60641;SDS011;46837;52.446;-1.930;2023-06-10T05:40:07;35.10;;;23.96;;
60641;SDS011;46837;52.446;-1.930;2023-06-10T05:41:07;44.42;;;25.62;;
60641;SDS011;46837;52.446;-1.930;2023-06-10T05:42:07;40.18;;;24.28;;
60641;SDS011;46837;52.446;-1.930;2023-06-10T05:43:07;42.32;;;25.18;;
60641;SDS011;46837;52.446;-1.930;2023-06-10T05:44:07;46.58;;;26.52;;
60641;SDS011;46837;52.446;-1.930;2023-06-10T05:45:07;50.04;;;25.08;;
60641;SDS011;46837;52.446;-1.930;2023-06-10T05:46:07;47.44;;;25.66;;
60641;SDS011;46837;52.446;-1.930;2023-06-10T05:47:07;41.28;;;26.98;;
60641;SDS011;46837;52.446;-1.930;2023-06-10T05:48:07;44.90;;;24.80;;
60641;SDS011;46837;52.446;-1.930;2023-06-10T05:49:07;38.88;;;24.24;;
60641;SDS011;46837;52.446;-1.930;2023-06-10T05:50:09;42.30;;;27.44;;
60641;SDS011;46837;52.446;-1.930;2023-06-10T05:51:07;53.76;;;25.96;;
60641;SDS011;46837;52.446;-1.930;2023-06-10T05:52:07;40.70;;;25.22;;